createdAt,value
2023-04-23T00:11:01.785Z,9.33
2023-04-23T00:26:04.902Z,9.20
2023-04-23T00:41:08.014Z,9.07
2023-04-23T00:56:10.886Z,8.96
2023-04-23T01:11:14.930Z,8.87
2023-04-23T01:26:19.094Z,8.72
2023-04-23T01:41:21.971Z,8.53
2023-04-23T01:56:25.922Z,8.36
2023-04-23T02:11:28.803Z,8.22
2023-04-23T02:26:31.401Z,8.18
2023-04-23T02:41:34.025Z,8.14
2023-04-23T02:56:36.714Z,8.01
2023-04-23T03:11:39.520Z,7.91
2023-04-23T03:26:42.371Z,7.70
2023-04-23T03:41:45.020Z,7.60
2023-04-23T03:56:47.591Z,7.60
2023-04-23T04:11:51.764Z,8.05
2023-04-23T04:26:56.086Z,9.88
2023-04-23T04:41:59.963Z,12.70
2023-04-23T04:57:02.765Z,15.68
2023-04-23T05:12:07.441Z,18.54
2023-04-23T05:27:10.251Z,21.34
2023-04-23T05:42:13.274Z,23.57
2023-04-23T05:57:16.050Z,25.16
2023-04-23T06:12:18.796Z,26.63
2023-04-23T06:27:21.584Z,28.20
2023-04-23T06:42:24.328Z,29.75
2023-04-23T06:57:28.442Z,31.48
2023-04-23T07:12:31.295Z,32.93
2023-04-23T07:27:34.614Z,33.95
2023-04-23T07:42:37.378Z,34.20
2023-04-23T07:57:40.172Z,34.99
2023-04-23T08:12:42.995Z,35.48
2023-04-23T08:27:45.856Z,35.31
2023-04-23T08:42:58.851Z,35.11
2023-04-23T08:58:03.102Z,34.95
2023-04-23T09:13:06.112Z,34.86
2023-04-23T09:28:10.946Z,33.89
2023-04-23T09:43:13.790Z,32.64
2023-04-23T09:58:16.673Z,31.84
2023-04-23T10:13:21.292Z,32.06
2023-04-23T10:28:29.242Z,30.25
2023-04-23T10:43:32.359Z,28.89
2023-04-23T10:58:51.944Z,27.62
2023-04-23T11:13:54.860Z,26.48
2023-04-23T11:28:58.372Z,25.90
2023-04-23T11:44:01.159Z,25.92
2023-04-23T11:59:05.810Z,26.30
2023-04-23T12:14:10.258Z,26.59
2023-04-23T12:29:14.008Z,26.57
2023-04-23T12:44:16.780Z,26.06
2023-04-23T12:59:19.820Z,25.44
2023-04-23T13:14:23.020Z,25.07
2023-04-23T13:29:27.302Z,24.83
2023-04-23T13:44:33.082Z,24.53
2023-04-23T13:59:35.760Z,24.02
2023-04-23T14:14:38.800Z,23.64
2023-04-23T14:29:50.628Z,23.59
2023-04-23T14:44:56.828Z,23.45
2023-04-23T14:59:59.866Z,23.05
2023-04-23T15:15:04.656Z,22.52
2023-04-23T15:30:07.983Z,21.74
2023-04-23T15:45:11.942Z,20.88
2023-04-23T16:00:16.694Z,20.33
2023-04-23T16:15:19.418Z,19.68
2023-04-23T16:30:22.061Z,18.73
2023-04-23T16:45:25.105Z,18.17
2023-04-23T17:00:28.030Z,17.90
2023-04-23T17:15:30.950Z,17.66
2023-04-23T17:30:33.794Z,17.41
2023-04-23T17:45:36.360Z,17.12
2023-04-23T18:00:44.140Z,16.83
2023-04-23T18:15:49.918Z,16.56
2023-04-23T18:30:54.243Z,16.37
2023-04-23T18:45:57.329Z,16.25
2023-04-23T19:01:00.216Z,16.20
2023-04-23T19:16:03.405Z,16.14
2023-04-23T19:31:06.299Z,15.97
2023-04-23T19:46:09.334Z,15.82
2023-04-23T20:01:13.119Z,15.63
2023-04-23T20:16:16.503Z,15.46
2023-04-23T20:31:21.323Z,15.12
2023-04-23T20:46:25.771Z,15.27
2023-04-23T21:01:28.839Z,15.49
2023-04-23T21:16:31.671Z,15.45
2023-04-23T21:31:48.427Z,14.99
2023-04-23T21:46:51.446Z,14.87
2023-04-23T22:01:54.178Z,14.58
2023-04-23T22:16:58.774Z,14.38
2023-04-23T22:32:01.800Z,14.08
2023-04-23T22:47:08.219Z,13.93
2023-04-23T23:02:10.930Z,13.52
2023-04-23T23:17:13.696Z,13.33
2023-04-23T23:32:16.471Z,13.34
2023-04-23T23:47:19.171Z,13.31
